Time;durP1;ratioP1;P1;durP2;ratioP2;P2;SDS_P1;SDS_P2;PMS_P1;PMS_P2;Temp;Humidity;BMP_temperature;BMP_pressure;BME280_temperature;BME280_humidity;BME280_pressure;Samples;Min_cycle;Max_cycle;Signal;HPM_P1;HPM_P2
2024/03/24 00:00:12;;;;;;;8.75;3.30;;;2.50;99.90;;;;;;5095122;28;20036;-62
2024/03/24 00:02:58;;;;;;;11.55;2.90;;;2.50;99.90;;;;;;5075422;28;20051;-61
2024/03/24 00:05:44;;;;;;;8.63;3.20;;;2.50;99.90;;;;;;5075280;28;20596;-61
2024/03/24 00:08:33;;;;;;;5.40;2.90;;;2.50;99.90;;;;;;5075471;28;20575;-61
2024/03/24 00:11:19;;;;;;;6.03;2.88;;;2.50;99.90;;;;;;5073220;28;20037;-61
2024/03/24 00:14:04;;;;;;;4.90;3.05;;;2.50;99.90;;;;;;5076336;28;20028;-61
2024/03/24 00:16:51;;;;;;;7.20;3.10;;;2.50;99.90;;;;;;5072454;28;20592;-61
2024/03/24 00:19:36;;;;;;;5.68;2.42;;;2.50;99.90;;;;;;5059186;28;20278;-61
2024/03/24 00:22:22;;;;;;;4.23;2.80;;;2.50;99.90;;;;;;5058814;28;20115;-61
2024/03/24 00:25:09;;;;;;;6.10;2.60;;;2.50;99.90;;;;;;5058388;28;20077;-61
2024/03/24 00:27:55;;;;;;;5.07;2.88;;;2.50;99.90;;;;;;5063899;28;21019;-60
2024/03/24 00:30:41;;;;;;;3.47;2.33;;;2.50;99.90;;;;;;5057565;28;20110;-61
2024/03/24 00:33:27;;;;;;;6.67;3.13;;;2.60;99.90;;;;;;5081987;28;20097;-61
2024/03/24 00:36:13;;;;;;;6.65;3.13;;;2.50;99.90;;;;;;5081468;28;20643;-61
2024/03/24 00:38:58;;;;;;;8.23;2.70;;;2.60;99.90;;;;;;5080001;28;20040;-61
2024/03/24 00:41:44;;;;;;;5.43;2.73;;;2.50;99.90;;;;;;5076974;28;21044;-61
2024/03/24 00:44:30;;;;;;;5.82;2.95;;;2.50;99.90;;;;;;5081092;28;20105;-61
2024/03/24 00:47:16;;;;;;;5.53;2.63;;;2.50;99.90;;;;;;5079448;28;20058;-60
2024/03/24 00:50:03;;;;;;;8.50;3.13;;;2.50;99.90;;;;;;5072705;28;20282;-60
2024/03/24 00:52:49;;;;;;;6.00;2.83;;;2.50;99.90;;;;;;5072916;28;20087;-61
2024/03/24 00:55:35;;;;;;;8.15;3.10;;;2.50;99.90;;;;;;5080127;28;20645;-59
2024/03/24 00:58:20;;;;;;;8.43;2.75;;;2.50;99.90;;;;;;5075509;28;20124;-61
2024/03/24 01:01:06;;;;;;;5.45;2.88;;;2.60;99.90;;;;;;5074393;28;20194;-61
2024/03/24 01:03:52;;;;;;;8.67;3.30;;;2.60;99.90;;;;;;5082484;28;20043;-61
2024/03/24 01:06:38;;;;;;;8.27;3.40;;;2.60;99.90;;;;;;5081057;28;20282;-61
2024/03/24 01:09:24;;;;;;;7.77;3.00;;;2.70;99.90;;;;;;5078942;28;20050;-61
2024/03/24 01:12:10;;;;;;;8.40;4.00;;;2.60;99.90;;;;;;5076237;28;20034;-61
2024/03/24 01:14:55;;;;;;;8.68;3.10;;;2.70;99.90;;;;;;5079301;28;20039;-62
2024/03/24 01:17:42;;;;;;;8.27;3.40;;;2.70;99.90;;;;;;5078875;28;20032;-63
2024/03/24 01:20:28;;;;;;;;;;;2.70;99.90;;;;;;5067567;28;20093;-62
2024/03/24 01:23:14;;;;;;;8.68;3.35;;;2.70;99.90;;;;;;5059645;28;19912;-61
2024/03/24 01:26:00;;;;;;;6.82;3.53;;;2.70;99.90;;;;;;5077968;28;20027;-61
2024/03/24 01:28:46;;;;;;;7.20;4.30;;;2.70;99.90;;;;;;5073880;28;20031;-62
2024/03/24 01:31:32;;;;;;;8.45;4.40;;;2.70;99.90;;;;;;5075994;28;20038;-61
2024/03/24 01:34:18;;;;;;;6.63;3.77;;;2.70;99.90;;;;;;5075048;28;20085;-61
2024/03/24 01:37:04;;;;;;;9.40;4.10;;;2.70;99.90;;;;;;5072647;28;20028;-62
2024/03/24 01:39:50;;;;;;;7.45;4.20;;;2.70;99.90;;;;;;5081300;28;20067;-61
2024/03/24 01:42:36;;;;;;;9.93;3.83;;;2.60;99.90;;;;;;5079367;28;20071;-61
2024/03/24 01:45:21;;;;;;;5.63;3.47;;;2.60;99.90;;;;;;5076639;28;21045;-61
2024/03/24 01:48:08;;;;;;;9.13;3.90;;;2.60;99.90;;;;;;5079657;28;20024;-61
2024/03/24 01:50:54;;;;;;;6.97;3.75;;;2.60;99.90;;;;;;5070571;28;20036;-61
2024/03/24 01:53:40;;;;;;;8.47;4.13;;;2.60;99.90;;;;;;5074285;28;20043;-61
2024/03/24 01:56:26;;;;;;;8.35;3.78;;;2.60;99.90;;;;;;5075277;28;20040;-61
2024/03/24 01:59:13;;;;;;;5.87;3.70;;;2.60;99.90;;;;;;5068717;28;20581;-61
2024/03/24 02:01:59;;;;;;;7.88;3.97;;;2.60;99.90;;;;;;5070278;28;20039;-61
2024/03/24 02:04:48;;;;;;;8.00;4.22;;;2.60;99.90;;;;;;5076184;28;20071;-62
2024/03/24 02:07:34;;;;;;;8.88;3.58;;;2.60;99.90;;;;;;5073300;28;20052;-61
2024/03/24 02:10:24;;;;;;;10.10;4.43;;;2.60;99.90;;;;;;5075560;28;20054;-61
2024/03/24 02:13:10;;;;;;;6.05;3.50;;;2.60;99.90;;;;;;5076175;28;20028;-61
2024/03/24 02:15:56;;;;;;;6.57;3.50;;;2.60;99.90;;;;;;5074064;28;20040;-61
2024/03/24 02:18:42;;;;;;;10.03;4.00;;;2.60;99.90;;;;;;5079123;28;20064;-61
2024/03/24 02:21:28;;;;;;;9.73;3.42;;;2.60;99.90;;;;;;5071443;28;20113;-61
2024/03/24 02:24:14;;;;;;;7.45;3.95;;;2.60;99.90;;;;;;5074657;28;20032;-61
2024/03/24 02:26:59;;;;;;;5.70;3.70;;;2.60;99.90;;;;;;5078609;28;20355;-61
2024/03/24 02:29:46;;;;;;;6.03;3.67;;;2.60;99.90;;;;;;5070426;28;20428;-61
2024/03/24 02:32:32;;;;;;;5.50;3.30;;;2.60;99.90;;;;;;5072861;28;20063;-61
2024/03/24 02:35:17;;;;;;;6.07;4.13;;;2.70;99.90;;;;;;5073582;28;20035;-61
2024/03/24 02:38:03;;;;;;;6.68;3.60;;;2.60;99.90;;;;;;5075432;28;20028;-61
2024/03/24 02:40:49;;;;;;;7.05;3.88;;;2.70;99.90;;;;;;5080246;28;20039;-61
2024/03/24 02:43:36;;;;;;;9.60;3.55;;;2.70;99.90;;;;;;5070573;28;20028;-61
2024/03/24 02:46:22;;;;;;;7.65;3.42;;;2.70;99.90;;;;;;5076072;28;20035;-61
2024/03/24 02:49:08;;;;;;;11.25;3.63;;;2.60;99.90;;;;;;5070675;28;20297;-61
2024/03/24 02:51:54;;;;;;;10.40;3.83;;;2.70;99.90;;;;;;5074054;28;20406;-61
2024/03/24 02:54:39;;;;;;;8.90;3.42;;;2.70;99.90;;;;;;5069996;23;20636;-65
2024/03/24 02:57:26;;;;;;;13.80;3.87;;;2.70;99.90;;;;;;4999652;28;20702;-65
2024/03/24 03:00:13;;;;;;;10.93;3.78;;;2.70;99.90;;;;;;5004102;28;20534;-64
2024/03/24 03:02:59;;;;;;;7.15;3.40;;;2.70;99.90;;;;;;4996805;28;20408;-65
2024/03/24 03:05:45;;;;;;;12.40;3.70;;;2.70;99.90;;;;;;4999487;28;20069;-65
2024/03/24 03:08:31;;;;;;;10.32;3.78;;;2.70;99.90;;;;;;4990087;28;20038;-64
2024/03/24 03:11:18;;;;;;;6.93;4.03;;;2.70;99.90;;;;;;5000294;28;20045;-64
2024/03/24 03:14:03;;;;;;;8.85;3.45;;;2.70;99.90;;;;;;4997672;28;20570;-65
2024/03/24 03:16:49;;;;;;;10.23;3.90;;;2.70;99.90;;;;;;5000466;28;20333;-64
2024/03/24 03:19:36;;;;;;;10.87;4.20;;;2.70;99.90;;;;;;4992625;28;20045;-64
2024/03/24 03:22:22;;;;;;;11.52;4.15;;;2.70;99.90;;;;;;4998917;28;20034;-64
2024/03/24 03:25:08;;;;;;;7.40;3.83;;;2.70;99.90;;;;;;4996840;28;20068;-65
2024/03/24 03:27:54;;;;;;;12.40;4.03;;;2.70;99.90;;;;;;4994911;28;20045;-64
2024/03/24 03:30:40;;;;;;;7.47;4.20;;;2.70;99.90;;;;;;4994742;28;20060;-65
2024/03/24 03:33:26;;;;;;;7.70;3.67;;;2.70;99.90;;;;;;4998157;28;20046;-64
2024/03/24 03:36:12;;;;;;;8.67;4.90;;;2.80;99.90;;;;;;4999465;28;20634;-64
2024/03/24 03:38:58;;;;;;;9.52;4.95;;;2.70;99.90;;;;;;4996882;28;20069;-64
2024/03/24 03:41:44;;;;;;;9.20;4.80;;;2.70;99.90;;;;;;5002208;28;20040;-65
2024/03/24 03:44:29;;;;;;;10.60;4.40;;;2.70;99.90;;;;;;4999568;28;20040;-64
2024/03/24 03:47:18;;;;;;;9.03;4.73;;;2.70;99.90;;;;;;4997829;28;20106;-64
2024/03/24 03:50:05;;;;;;;7.30;4.15;;;2.60;99.90;;;;;;5002143;28;20049;-64
2024/03/24 03:52:50;;;;;;;8.15;4.38;;;2.50;99.90;;;;;;4996989;28;20044;-64
2024/03/24 03:55:37;;;;;;;12.83;3.97;;;2.50;99.90;;;;;;5003847;28;20046;-64
2024/03/24 03:58:23;;;;;;;8.88;4.47;;;2.50;99.90;;;;;;5005197;28;20033;-64
2024/03/24 04:01:09;;;;;;;8.05;4.55;;;2.40;99.90;;;;;;5004217;28;20041;-64
2024/03/24 04:03:56;;;;;;;8.90;4.57;;;2.50;99.90;;;;;;5006397;28;20332;-65
2024/03/24 04:06:42;;;;;;;7.63;4.38;;;2.50;99.90;;;;;;5006814;28;20057;-64
2024/03/24 04:09:28;;;;;;;9.17;4.00;;;2.50;99.90;;;;;;5003371;28;20460;-64
2024/03/24 04:12:14;;;;;;;11.80;4.45;;;2.50;99.90;;;;;;5003749;28;20056;-64
2024/03/24 04:15:00;;;;;;;8.93;4.47;;;2.50;99.90;;;;;;5002068;28;20046;-64
2024/03/24 04:17:46;;;;;;;9.57;4.47;;;2.50;99.90;;;;;;5006865;28;20073;-64
2024/03/24 04:20:36;;;;;;;8.63;4.97;;;2.50;99.90;;;;;;4985724;28;20096;-64
2024/03/24 04:23:21;;;;;;;6.70;4.10;;;2.50;99.90;;;;;;5002470;28;20799;-64
2024/03/24 04:26:07;;;;;;;16.37;5.23;;;2.50;99.90;;;;;;5000557;28;20026;-64
2024/03/24 04:28:53;;;;;;;12.30;4.67;;;2.50;99.90;;;;;;4998998;28;21162;-64
2024/03/24 04:31:39;;;;;;;10.55;5.00;;;2.50;99.90;;;;;;5005752;28;20042;-64
2024/03/24 04:34:25;;;;;;;8.03;4.93;;;2.50;99.90;;;;;;4996402;28;20069;-64
2024/03/24 04:37:11;;;;;;;6.65;4.38;;;2.40;99.90;;;;;;5004657;28;20416;-64
2024/03/24 04:39:57;;;;;;;5.55;3.78;;;2.40;99.90;;;;;;4998684;28;20483;-64
2024/03/24 04:42:43;;;;;;;5.10;3.40;;;2.40;99.90;;;;;;5005618;28;20521;-64
2024/03/24 04:45:29;;;;;;;9.23;3.85;;;2.40;99.90;;;;;;5001561;28;20036;-64
2024/03/24 04:48:14;;;;;;;6.37;3.60;;;2.40;99.90;;;;;;5001548;28;20064;-64
2024/03/24 04:51:01;;;;;;;3.97;3.10;;;2.40;99.90;;;;;;4994087;28;20743;-64
2024/03/24 04:53:46;;;;;;;11.52;4.00;;;2.40;99.90;;;;;;4988921;28;20030;-64
2024/03/24 04:56:32;;;;;;;5.28;2.83;;;2.40;99.90;;;;;;5004605;28;20046;-63
2024/03/24 04:59:18;;;;;;;3.80;2.77;;;2.40;99.90;;;;;;5000569;28;20041;-63
2024/03/24 05:02:04;;;;;;;4.10;2.63;;;2.40;99.90;;;;;;5005080;28;20034;-63
2024/03/24 05:04:50;;;;;;;4.73;2.63;;;2.30;99.90;;;;;;5001944;28;20648;-63
2024/03/24 05:07:36;;;;;;;4.13;2.33;;;2.20;99.90;;;;;;4998948;28;20056;-63
2024/03/24 05:10:22;;;;;;;4.17;2.43;;;2.20;99.90;;;;;;5004691;28;20280;-63
2024/03/24 05:13:11;;;;;;;3.97;2.10;;;2.20;99.90;;;;;;5000420;28;20301;-62
2024/03/24 05:15:57;;;;;;;2.00;1.50;;;2.20;99.90;;;;;;5001311;28;20041;-61
2024/03/24 05:18:43;;;;;;;3.35;1.45;;;2.20;99.90;;;;;;5000362;28;20064;-61
2024/03/24 05:21:29;;;;;;;2.67;1.60;;;2.20;99.90;;;;;;5000063;28;20412;-61
2024/03/24 05:24:15;;;;;;;1.77;1.38;;;2.30;99.90;;;;;;5008861;28;20666;-62
2024/03/24 05:27:04;;;;;;;1.10;1.00;;;2.30;99.90;;;;;;4997320;28;20411;-62
2024/03/24 05:29:50;;;;;;;1.63;1.30;;;2.30;99.90;;;;;;4996842;28;20037;-62
2024/03/24 05:32:36;;;;;;;1.75;1.33;;;2.30;99.90;;;;;;5001612;28;20499;-62
2024/03/24 05:35:22;;;;;;;5.13;1.35;;;2.30;99.90;;;;;;5001607;28;20049;-63
2024/03/24 05:38:08;;;;;;;0.80;0.80;;;2.40;99.90;;;;;;5002371;28;20671;-63
2024/03/24 05:40:58;;;;;;;1.83;1.00;;;2.40;99.90;;;;;;5001226;28;20034;-62
2024/03/24 05:43:44;;;;;;;1.55;0.80;;;2.40;99.90;;;;;;5002820;28;20084;-63
2024/03/24 05:46:30;;;;;;;0.60;0.60;;;2.40;99.90;;;;;;4999238;28;20037;-62
2024/03/24 05:49:15;;;;;;;0.83;0.70;;;2.40;99.90;;;;;;5003587;28;20366;-62
2024/03/24 05:52:01;;;;;;;1.30;1.10;;;2.40;99.90;;;;;;5000750;28;20191;-62
2024/03/24 05:54:47;;;;;;;1.42;0.80;;;2.40;99.90;;;;;;4994500;28;20038;-62
2024/03/24 05:57:33;;;;;;;1.10;0.90;;;2.40;99.90;;;;;;5004655;28;20077;-62
2024/03/24 06:00:19;;;;;;;3.13;0.77;;;2.30;99.90;;;;;;4995507;28;20084;-62
2024/03/24 06:03:05;;;;;;;0.98;0.90;;;2.40;99.90;;;;;;5002571;28;20030;-62
2024/03/24 06:05:51;;;;;;;2.90;1.40;;;2.40;99.90;;;;;;5000441;28;20120;-62
2024/03/24 06:08:37;;;;;;;1.40;1.10;;;2.40;99.90;;;;;;4999143;28;20049;-62
2024/03/24 06:11:23;;;;;;;1.25;1.08;;;2.40;99.90;;;;;;4995123;28;20078;-62
2024/03/24 06:14:09;;;;;;;1.70;1.23;;;2.40;99.90;;;;;;5002762;28;20038;-62
2024/03/24 06:16:55;;;;;;;0.98;0.85;;;2.40;99.90;;;;;;4994897;28;20026;-62
2024/03/24 06:19:40;;;;;;;1.02;0.95;;;2.50;99.90;;;;;;5000630;28;20558;-62
2024/03/24 06:22:26;;;;;;;1.27;0.82;;;2.50;99.90;;;;;;5001846;28;20095;-62
2024/03/24 06:25:12;;;;;;;2.65;1.13;;;2.60;99.90;;;;;;4998746;28;20034;-62
2024/03/24 06:28:00;;;;;;;0.90;0.70;;;2.60;99.90;;;;;;4994753;28;20471;-62
2024/03/24 06:30:48;;;;;;;0.60;0.60;;;2.70;99.90;;;;;;4998520;28;20451;-62
2024/03/24 06:33:34;;;;;;;1.00;0.80;;;2.70;99.90;;;;;;5003228;28;20683;-62
2024/03/24 06:36:19;;;;;;;1.50;1.00;;;2.70;99.90;;;;;;4999322;28;20088;-62
2024/03/24 06:39:06;;;;;;;0.55;0.52;;;3.00;99.90;;;;;;5005214;28;20115;-62
2024/03/24 06:41:54;;;;;;;0.85;0.73;;;3.30;99.90;;;;;;5000345;28;20041;-62
2024/03/24 06:44:42;;;;;;;0.50;0.50;;;3.40;99.90;;;;;;5004364;28;20384;-62
2024/03/24 06:47:28;;;;;;;0.40;0.40;;;3.20;99.90;;;;;;5001033;28;20038;-62
2024/03/24 06:50:14;;;;;;;0.40;0.40;;;3.20;99.90;;;;;;4998594;28;20562;-62
2024/03/24 06:53:00;;;;;;;0.40;0.40;;;3.20;99.90;;;;;;5000050;28;20450;-62
2024/03/24 06:55:49;;;;;;;0.37;0.37;;;3.20;99.90;;;;;;5001439;28;20046;-62
2024/03/24 06:58:35;;;;;;;0.60;0.40;;;3.20;99.90;;;;;;4999910;28;20072;-62
2024/03/24 07:01:21;;;;;;;0.90;0.33;;;3.10;99.90;;;;;;5001235;28;20042;-62
2024/03/24 07:04:07;;;;;;;0.50;0.40;;;3.10;99.90;;;;;;4998185;28;20519;-62
2024/03/24 07:06:53;;;;;;;0.95;0.40;;;3.20;99.90;;;;;;4998481;28;20129;-62
2024/03/24 07:09:38;;;;;;;0.30;0.30;;;3.20;99.90;;;;;;5001734;28;20439;-63
2024/03/24 07:12:25;;;;;;;0.30;0.30;;;3.20;99.90;;;;;;5001522;28;20045;-62
2024/03/24 07:15:11;;;;;;;0.55;0.22;;;3.20;99.90;;;;;;4998208;28;20380;-62
2024/03/24 07:17:57;;;;;;;0.20;0.20;;;3.20;99.90;;;;;;4998003;28;21218;-63
2024/03/24 07:20:42;;;;;;;0.20;0.20;;;3.20;99.90;;;;;;5004529;28;20041;-62
2024/03/24 07:23:31;;;;;;;0.32;0.32;;;3.20;99.90;;;;;;4999019;28;20743;-62
2024/03/24 07:26:17;;;;;;;0.60;0.35;;;3.50;99.90;;;;;;5001597;28;20037;-62
2024/03/24 07:29:03;;;;;;;0.70;0.40;;;3.50;99.90;;;;;;5003762;28;20030;-62
2024/03/24 07:31:49;;;;;;;0.35;0.35;;;3.60;99.90;;;;;;5005579;28;20130;-63
2024/03/24 07:34:35;;;;;;;2.97;0.38;;;3.60;99.90;;;;;;5001225;28;20117;-63
2024/03/24 07:37:21;;;;;;;0.43;0.30;;;3.60;99.90;;;;;;5000907;28;20022;-63
2024/03/24 07:40:07;;;;;;;0.63;0.50;;;3.60;99.90;;;;;;5001242;28;20563;-64
2024/03/24 07:42:53;;;;;;;2.05;0.40;;;3.60;99.90;;;;;;5005332;28;20026;-63
2024/03/24 07:45:39;;;;;;;1.23;0.75;;;3.50;99.90;;;;;;5004963;28;20554;-62
2024/03/24 07:48:25;;;;;;;1.70;0.73;;;3.50;99.90;;;;;;5004879;28;20034;-63
2024/03/24 07:51:11;;;;;;;1.65;0.80;;;3.40;99.90;;;;;;5006471;28;20037;-63
2024/03/24 07:53:57;;;;;;;1.83;0.70;;;3.40;99.90;;;;;;5006061;28;20073;-62
2024/03/24 07:56:43;;;;;;;1.03;0.70;;;3.40;99.90;;;;;;5002914;28;20423;-62
2024/03/24 07:59:28;;;;;;;1.10;0.70;;;3.40;99.90;;;;;;5001988;28;20960;-63
2024/03/24 08:02:14;;;;;;;3.47;1.27;;;3.40;99.90;;;;;;4986843;28;20836;-62
2024/03/24 08:05:00;;;;;;;1.20;0.80;;;3.50;99.90;;;;;;5001780;28;20052;-62
2024/03/24 08:07:46;;;;;;;2.40;0.90;;;3.60;99.90;;;;;;5006373;28;20130;-62
2024/03/24 08:10:32;;;;;;;1.00;0.85;;;3.60;99.90;;;;;;5007274;28;20034;-62
2024/03/24 08:13:18;;;;;;;1.08;0.88;;;3.70;99.90;;;;;;5004549;28;20030;-62
2024/03/24 08:16:04;;;;;;;2.20;0.97;;;3.70;99.90;;;;;;5004307;28;20050;-62
2024/03/24 08:18:50;;;;;;;1.27;0.60;;;3.80;99.90;;;;;;5008277;28;20908;-63
2024/03/24 08:21:36;;;;;;;1.90;1.00;;;3.80;99.90;;;;;;4988400;28;20277;-62
2024/03/24 08:24:22;;;;;;;1.52;0.80;;;3.80;99.90;;;;;;5004594;28;20270;-62
2024/03/24 08:27:10;;;;;;;1.37;0.77;;;3.80;99.90;;;;;;5000337;28;20037;-62
2024/03/24 08:29:55;;;;;;;1.30;0.88;;;3.80;99.90;;;;;;5001333;28;20102;-62
2024/03/24 08:32:41;;;;;;;1.70;0.63;;;3.80;99.90;;;;;;4996672;28;20041;-62
2024/03/24 08:35:27;;;;;;;1.10;0.50;;;3.80;99.90;;;;;;5005655;28;20503;-62
2024/03/24 08:38:13;;;;;;;0.82;0.60;;;3.90;99.90;;;;;;5001132;28;20073;-62
2024/03/24 08:40:59;;;;;;;0.40;0.40;;;4.00;99.90;;;;;;5006245;28;20036;-62
2024/03/24 08:43:45;;;;;;;0.52;0.40;;;4.10;99.90;;;;;;5003481;28;20081;-62
2024/03/24 08:46:31;;;;;;;1.20;0.55;;;4.00;99.90;;;;;;5005728;28;20076;-62
2024/03/24 08:49:17;;;;;;;2.38;0.60;;;4.20;99.90;;;;;;5003927;28;20050;-62
2024/03/24 08:52:03;;;;;;;0.60;0.47;;;4.20;99.90;;;;;;5004132;28;20041;-62
2024/03/24 08:54:48;;;;;;;0.93;0.70;;;4.30;99.90;;;;;;4987178;28;20121;-62
2024/03/24 08:57:35;;;;;;;1.20;0.50;;;4.30;99.90;;;;;;5002681;28;20150;-62
2024/03/24 09:00:21;;;;;;;2.38;0.60;;;4.40;99.90;;;;;;5003003;28;20500;-62
2024/03/24 09:03:07;;;;;;;0.40;0.38;;;4.50;99.90;;;;;;4997846;28;20037;-62
2024/03/24 09:05:52;;;;;;;0.50;0.40;;;4.40;99.90;;;;;;5001056;28;20033;-64
2024/03/24 09:08:38;;;;;;;0.50;0.32;;;4.60;99.90;;;;;;5005102;28;20061;-64
2024/03/24 09:11:24;;;;;;;2.03;0.70;;;4.80;99.90;;;;;;5002844;28;20034;-63
2024/03/24 09:14:10;;;;;;;1.05;0.60;;;4.80;99.90;;;;;;4998073;28;20041;-64
2024/03/24 09:16:56;;;;;;;1.07;0.80;;;4.90;99.90;;;;;;5004686;28;20040;-63
2024/03/24 09:19:42;;;;;;;2.38;0.82;;;5.10;99.90;;;;;;5003876;28;20034;-62
2024/03/24 09:22:27;;;;;;;1.95;0.70;;;5.00;99.90;;;;;;5004528;28;20058;-62
2024/03/24 09:25:13;;;;;;;3.78;1.33;;;4.70;99.90;;;;;;5000538;28;20100;-63
2024/03/24 09:28:02;;;;;;;2.63;1.10;;;4.70;99.90;;;;;;5001580;28;20064;-63
2024/03/24 09:31:02;;;;;;;5.05;1.75;;;4.40;99.90;;;;;;5001586;28;20046;-61
2024/03/24 09:33:48;;;;;;;2.95;1.20;;;4.20;99.90;;;;;;5005858;28;20764;-62
2024/03/24 09:36:34;;;;;;;3.47;1.30;;;4.20;99.90;;;;;;5000398;28;20084;-61
2024/03/24 09:39:20;;;;;;;4.47;1.40;;;4.20;99.90;;;;;;5002788;28;20033;-64
2024/03/24 09:42:11;;;;;;;2.10;1.10;;;4.30;99.90;;;;;;5002481;28;20054;-63
2024/03/24 09:45:00;;;;;;;2.78;1.40;;;4.00;99.90;;;;;;5000177;28;20280;-63
2024/03/24 09:47:47;;;;;;;1.10;0.68;;;3.80;99.90;;;;;;5001096;28;20037;-62
2024/03/24 09:50:36;;;;;;;1.80;0.63;;;3.60;99.90;;;;;;4995923;28;20546;-62
2024/03/24 09:53:22;;;;;;;0.60;0.50;;;3.60;99.90;;;;;;5004436;28;20041;-61
2024/03/24 09:56:09;;;;;;;0.52;0.38;;;3.50;99.90;;;;;;4997479;28;20491;-62
2024/03/24 09:58:58;;;;;;;3.70;0.52;;;3.50;99.90;;;;;;4995499;28;20034;-62
2024/03/24 10:01:49;;;;;;;0.52;0.40;;;3.80;99.90;;;;;;5002792;28;20088;-63
2024/03/24 10:04:35;;;;;;;0.30;0.30;;;4.10;99.90;;;;;;4998928;28;20087;-63
2024/03/24 10:07:21;;;;;;;1.35;0.30;;;4.20;99.90;;;;;;5001697;28;20734;-64
2024/03/24 10:10:08;;;;;;;0.30;0.30;;;4.40;99.90;;;;;;4997794;28;20041;-63
2024/03/24 10:12:55;;;;;;;0.30;0.28;;;4.60;99.90;;;;;;5007000;28;20030;-62
2024/03/24 10:15:41;;;;;;;0.50;0.50;;;4.80;99.90;;;;;;5002825;28;20068;-62
2024/03/24 10:18:27;;;;;;;0.52;0.50;;;4.80;99.90;;;;;;4999545;28;20112;-62
2024/03/24 10:21:13;;;;;;;1.77;0.87;;;5.00;99.90;;;;;;4999237;28;20045;-62
2024/03/24 10:23:59;;;;;;;3.33;1.10;;;5.30;99.90;;;;;;5004396;28;20058;-63
2024/03/24 10:26:45;;;;;;;5.17;1.60;;;5.50;99.90;;;;;;5003552;28;20427;-63
2024/03/24 10:29:31;;;;;;;2.75;1.90;;;5.70;99.90;;;;;;4996351;28;20069;-63
2024/03/24 10:32:17;;;;;;;4.25;1.83;;;5.80;99.90;;;;;;4997686;28;20496;-63
2024/03/24 10:35:05;;;;;;;4.57;1.60;;;5.70;99.90;;;;;;5000595;28;20021;-63
2024/03/24 10:37:51;;;;;;;4.63;1.70;;;5.50;99.90;;;;;;5002980;28;20113;-63
2024/03/24 10:40:38;;;;;;;3.90;1.38;;;5.50;99.90;;;;;;4998169;28;20034;-63
2024/03/24 10:43:25;;;;;;;4.75;2.30;;;5.60;99.90;;;;;;5003910;28;20041;-63
2024/03/24 10:46:12;;;;;;;2.65;1.90;;;5.80;99.90;;;;;;4996023;28;20416;-63
2024/03/24 10:48:58;;;;;;;;;;;5.90;99.90;;;;;;5016483;23;20050;-62
2024/03/24 10:51:48;;;;;;;3.85;2.35;;;5.80;99.90;;;;;;4960476;28;19948;-62
2024/03/24 10:54:34;;;;;;;6.95;2.67;;;5.80;99.90;;;;;;4987317;28;20030;-62
2024/03/24 10:57:21;;;;;;;4.25;2.60;;;5.80;99.90;;;;;;4984887;28;20038;-62
2024/03/24 11:00:08;;;;;;;4.72;2.65;;;5.90;99.90;;;;;;4976818;28;20540;-62
2024/03/24 11:02:56;;;;;;;9.82;4.13;;;5.70;99.90;;;;;;4968850;28;20042;-62
2024/03/24 11:05:46;;;;;;;9.45;3.72;;;5.90;99.90;;;;;;4974052;28;20035;-62
2024/03/24 11:08:32;;;;;;;11.85;3.22;;;6.00;99.90;;;;;;4973839;28;20264;-62
2024/03/24 11:11:19;;;;;;;9.27;3.20;;;6.00;99.90;;;;;;4974102;28;20472;-62
2024/03/24 11:14:06;;;;;;;8.68;3.97;;;6.10;99.90;;;;;;4972294;28;20034;-62
2024/03/24 11:16:55;;;;;;;8.52;3.25;;;6.20;99.90;;;;;;4975191;28;20034;-62
2024/03/24 11:19:51;;;;;;;9.75;3.75;;;6.20;99.90;;;;;;4968361;28;20046;-62
2024/03/24 11:22:44;;;;;;;8.48;3.30;;;6.20;99.90;;;;;;4972151;28;20612;-62
2024/03/24 11:25:36;;;;;;;7.32;3.72;;;6.20;99.90;;;;;;4965267;28;20035;-62
2024/03/24 11:28:52;;;;;;;9.30;3.60;;;6.30;99.90;;;;;;4973247;28;20566;-62
2024/03/24 11:31:38;;;;;;;7.38;3.58;;;6.40;99.90;;;;;;4962865;28;20027;-62
2024/03/24 11:34:24;;;;;;;10.85;3.38;;;6.50;99.90;;;;;;4972625;28;20748;-62
2024/03/24 11:37:10;;;;;;;9.13;3.28;;;6.50;99.90;;;;;;4979794;28;20030;-62
2024/03/24 11:39:56;;;;;;;14.25;4.18;;;6.60;99.90;;;;;;4978459;28;20038;-62
2024/03/24 11:42:44;;;;;;;6.85;3.40;;;6.70;99.90;;;;;;4977251;28;20042;-62
2024/03/24 11:45:32;;;;;;;13.45;4.53;;;6.70;99.90;;;;;;4973570;28;20069;-62
2024/03/24 11:48:22;;;;;;;9.57;3.42;;;6.70;99.90;;;;;;4974027;28;20050;-62
2024/03/24 11:51:08;;;;;;;7.97;3.78;;;6.60;99.90;;;;;;4976345;28;20496;-62
2024/03/24 11:53:55;;;;;;;9.90;4.77;;;6.50;99.90;;;;;;4972582;28;20068;-62
2024/03/24 11:56:43;;;;;;;11.95;4.03;;;6.60;99.90;;;;;;4979166;28;20306;-62
2024/03/24 11:59:29;;;;;;;6.97;3.38;;;6.80;99.90;;;;;;4974069;28;20042;-62
2024/03/24 12:02:15;;;;;;;9.82;3.47;;;6.90;99.90;;;;;;4975964;28;20050;-62
2024/03/24 12:05:01;;;;;;;9.90;3.13;;;6.90;99.90;;;;;;4971696;28;20508;-62
2024/03/24 12:07:47;;;;;;;8.80;3.10;;;6.80;99.90;;;;;;4972436;28;20070;-62
2024/03/24 12:10:34;;;;;;;8.52;3.40;;;6.60;99.90;;;;;;4957693;28;20114;-62
2024/03/24 12:13:20;;;;;;;8.98;3.65;;;6.80;99.90;;;;;;4975617;28;20601;-62
2024/03/24 12:16:06;;;;;;;7.22;3.60;;;6.90;99.90;;;;;;4969099;28;20033;-62
2024/03/24 12:18:53;;;;;;;9.52;3.00;;;7.00;99.90;;;;;;4981238;28;20058;-62
2024/03/24 12:21:40;;;;;;;7.90;3.33;;;7.00;99.90;;;;;;4981123;28;20066;-62
2024/03/24 12:24:27;;;;;;;8.77;2.90;;;6.80;99.90;;;;;;4980630;28;20065;-62
2024/03/24 12:27:14;;;;;;;7.25;3.28;;;6.40;99.90;;;;;;4972481;28;20041;-62
2024/03/24 12:30:01;;;;;;;;;;;6.20;99.90;;;;;;4971806;28;20038;-62
2024/03/24 12:32:48;;;;;;;4.40;2.03;;;5.90;99.90;;;;;;4980854;28;19914;-62
2024/03/24 12:35:34;;;;;;;7.15;2.95;;;5.60;99.90;;;;;;4978678;28;20302;-62
2024/03/24 12:38:21;;;;;;;6.00;2.40;;;5.50;99.90;;;;;;4978384;28;20512;-62
2024/03/24 12:41:06;;;;;;;6.28;2.30;;;5.40;99.90;;;;;;4977875;28;20022;-62
2024/03/24 12:43:53;;;;;;;8.63;2.65;;;5.30;99.90;;;;;;4981430;28;20105;-62
2024/03/24 12:46:40;;;;;;;5.22;2.40;;;5.40;99.90;;;;;;4980215;28;20167;-61
2024/03/24 12:49:31;;;;;;;3.40;1.95;;;5.40;99.90;;;;;;4974555;28;20526;-62
2024/03/24 12:52:17;;;;;;;5.82;2.33;;;5.40;99.90;;;;;;4976748;28;20038;-62
2024/03/24 12:55:03;;;;;;;6.47;2.05;;;5.10;99.90;;;;;;4974924;28;20037;-62
2024/03/24 12:57:51;;;;;;;2.20;1.70;;;5.10;99.90;;;;;;4982558;28;20514;-64
2024/03/24 13:00:37;;;;;;;7.07;2.42;;;5.00;99.90;;;;;;4964636;28;20093;-62
2024/03/24 13:03:23;;;;;;;6.63;2.08;;;5.00;99.90;;;;;;4974828;28;20060;-62
2024/03/24 13:06:14;;;;;;;5.30;1.77;;;4.90;99.90;;;;;;4970276;28;20089;-61
2024/03/24 13:09:03;;;;;;;4.45;1.65;;;4.90;99.90;;;;;;4961945;28;20289;-61
2024/03/24 13:11:49;;;;;;;4.55;1.83;;;4.90;99.90;;;;;;4980629;28;20069;-61
2024/03/24 13:14:35;;;;;;;7.53;2.28;;;4.90;99.90;;;;;;4977946;28;20121;-61
2024/03/24 13:17:29;;;;;;;3.80;1.55;;;4.80;99.90;;;;;;4981479;28;20034;-62
2024/03/24 13:20:16;;;;;;;3.67;1.85;;;4.80;99.90;;;;;;4975192;28;20456;-61
2024/03/24 13:23:03;;;;;;;6.63;1.58;;;4.90;99.90;;;;;;4980655;28;20022;-62
2024/03/24 13:25:55;;;;;;;4.22;1.48;;;4.90;99.90;;;;;;4975622;28;20128;-62
2024/03/24 13:28:41;;;;;;;3.75;1.27;;;5.10;99.90;;;;;;4981130;28;20034;-62
2024/03/24 13:31:27;;;;;;;2.58;1.10;;;5.20;99.90;;;;;;4978249;28;20085;-62
2024/03/24 13:34:13;;;;;;;5.68;1.40;;;5.20;99.90;;;;;;4980704;28;20065;-62
2024/03/24 13:37:19;;;;;;;2.45;1.17;;;5.30;99.90;;;;;;4982585;28;20042;-62
2024/03/24 13:40:19;;;;;;;4.93;1.40;;;5.20;99.90;;;;;;4975035;28;20030;-62
2024/03/24 13:43:38;;;;;;;3.65;1.55;;;5.10;99.90;;;;;;4983489;28;20053;-62
2024/03/24 13:46:27;;;;;;;;;;;5.10;99.90;;;;;;4980085;28;20050;-62
2024/03/24 13:49:12;;;;;;;3.72;1.50;;;5.20;99.90;;;;;;4976488;28;19909;-62
2024/03/24 13:51:59;;;;;;;4.47;1.50;;;5.20;99.90;;;;;;4982870;28;20038;-62
2024/03/24 13:54:45;;;;;;;;;;;5.20;99.90;;;;;;4978497;28;20031;-62
2024/03/24 13:57:33;;;;;;;8.70;2.42;;;5.20;99.90;;;;;;4982596;28;20482;-62
2024/03/24 14:00:19;;;;;;;4.70;2.00;;;5.10;99.90;;;;;;4966264;28;20026;-62
2024/03/24 14:03:05;;;;;;;5.65;2.33;;;5.10;99.90;;;;;;4983733;28;20030;-62
2024/03/24 14:05:51;;;;;;;6.78;2.72;;;5.10;99.90;;;;;;4978167;28;20039;-62
2024/03/24 14:08:36;;;;;;;6.00;3.05;;;5.10;99.90;;;;;;4980056;28;20035;-62
2024/03/24 14:11:22;;;;;;;14.05;2.90;;;5.10;99.90;;;;;;4978059;28;20062;-62
2024/03/24 14:14:36;;;;;;;9.90;3.85;;;5.10;99.90;;;;;;4978963;28;20029;-62
2024/03/24 14:17:34;;;;;;;15.43;3.28;;;5.20;99.90;;;;;;4979677;28;20097;-62
2024/03/24 14:20:29;;;;;;;7.00;3.45;;;5.40;99.90;;;;;;4975726;28;20084;-62
2024/03/24 14:23:28;;;;;;;9.52;3.25;;;5.30;99.90;;;;;;4981724;28;20030;-62
2024/03/24 14:26:14;;;;;;;7.53;3.15;;;5.10;99.90;;;;;;4973105;28;20038;-62
2024/03/24 14:29:00;;;;;;;7.47;3.70;;;5.00;99.90;;;;;;4980953;28;20472;-62
2024/03/24 14:31:46;;;;;;;10.77;3.67;;;4.90;99.90;;;;;;4981147;28;20039;-62
2024/03/24 14:34:33;;;;;;;7.15;3.60;;;4.80;99.90;;;;;;4978756;28;20069;-62
2024/03/24 14:37:38;;;;;;;9.32;3.60;;;4.70;99.90;;;;;;4980155;28;20053;-62
2024/03/24 14:40:55;;;;;;;8.85;3.72;;;4.70;99.90;;;;;;4980518;28;20448;-62